Time;durP1;ratioP1;P1;durP2;ratioP2;P2;SDS_P1;SDS_P2;PMS_P1;PMS_P2;Temp;Humidity;BMP_temperature;BMP_pressure;BME280_temperature;BME280_humidity;BME280_pressure;Samples;Min_cycle;Max_cycle;Signal;HPM_P1;HPM_P2
2024/02/29 00:01:10;;;;;;;18.50;12.40;;;;;;;;;;5077996;28;20027;-67
2024/02/29 00:03:35;;;;;;;19.80;12.68;;;;;;;;;;5078321;28;20019;-67
2024/02/29 00:06:01;;;;;;;18.25;12.13;;;;;;;;;;5077873;28;20472;-67
2024/02/29 00:08:27;;;;;;;19.48;12.80;;;;;;;;;;5096159;28;20024;-67
2024/02/29 00:10:52;;;;;;;22.65;13.30;;;;;;;;;;5078065;28;20028;-67
2024/02/29 00:13:18;;;;;;;19.27;12.85;;;;;;;;;;5096073;28;20016;-67
2024/02/29 00:15:43;;;;;;;15.95;11.68;;;;;;;;;;5095801;28;20031;-67
2024/02/29 00:18:09;;;;;;;36.38;21.88;;;;;;;;;;5077692;28;20032;-67
2024/02/29 00:20:35;;;;;;;34.40;20.52;;;;;;;;;;5077616;28;20368;-67
2024/02/29 00:23:00;;;;;;;19.25;13.25;;;;;;;;;;5096003;28;20039;-66
2024/02/29 00:25:26;;;;;;;20.88;13.60;;;;;;;;;;5096250;28;20019;-65
2024/02/29 00:27:51;;;;;;;66.00;38.30;;;;;;;;;;5095508;28;20356;-65
2024/02/29 00:30:17;;;;;;;59.00;35.97;;;;;;;;;;5077455;28;20028;-64
2024/02/29 00:32:43;;;;;;;44.90;30.02;;;;;;;;;;5095757;28;20020;-64
2024/02/29 00:35:08;;;;;;;53.67;34.70;;;;;;;;;;5095433;28;20024;-64
2024/02/29 00:37:34;;;;;;;39.65;28.13;;;;;;;;;;5094102;28;20023;-65
2024/02/29 00:39:59;;;;;;;46.63;31.45;;;;;;;;;;5077923;28;20028;-65
2024/02/29 00:42:25;;;;;;;18.38;13.45;;;;;;;;;;5095838;28;20034;-66
2024/02/29 00:44:50;;;;;;;17.50;12.80;;;;;;;;;;5095283;28;20070;-65
2024/02/29 00:47:16;;;;;;;17.20;11.93;;;;;;;;;;5077110;28;20032;-65
2024/02/29 00:49:41;;;;;;;16.85;11.75;;;;;;;;;;5095327;28;20064;-65
2024/02/29 00:52:06;;;;;;;15.70;11.70;;;;;;;;;;5095396;28;20036;-65
2024/02/29 00:54:32;;;;;;;19.55;13.10;;;;;;;;;;5095103;28;20024;-65
2024/02/29 00:56:57;;;;;;;18.95;13.95;;;;;;;;;;5095328;28;20028;-65
2024/02/29 00:59:23;;;;;;;17.50;12.20;;;;;;;;;;5095528;28;20111;-65
2024/02/29 01:01:48;;;;;;;15.07;11.32;;;;;;;;;;5094881;28;20361;-65
2024/02/29 01:04:14;;;;;;;13.75;10.88;;;;;;;;;;5095198;28;20035;-65
2024/02/29 01:06:39;;;;;;;17.63;13.05;;;;;;;;;;5095118;28;20477;-65
2024/02/29 01:09:05;;;;;;;19.30;12.57;;;;;;;;;;5094711;28;20123;-65
2024/02/29 01:11:33;;;;;;;22.10;15.77;;;;;;;;;;5095308;28;20032;-66
2024/02/29 01:14:02;;;;;;;21.88;16.00;;;;;;;;;;5095238;28;20462;-67
2024/02/29 01:16:28;;;;;;;58.78;34.22;;;;;;;;;;5076632;28;20028;-66
2024/02/29 01:18:53;;;;;;;23.20;15.43;;;;;;;;;;5095178;28;20421;-66
2024/02/29 01:21:18;;;;;;;16.17;12.25;;;;;;;;;;5094824;28;20112;-66
2024/02/29 01:23:44;;;;;;;20.38;14.55;;;;;;;;;;5093953;28;20426;-66
2024/02/29 01:26:10;;;;;;;19.25;12.85;;;;;;;;;;5076374;28;20081;-66
2024/02/29 01:28:45;;;;;;;18.08;12.32;;;;;;;;;;5100170;22;20395;-61
2024/02/29 01:31:19;;;;;;;20.38;14.20;;;;;;;;;;5052183;28;20041;-66
2024/02/29 01:33:45;;;;;;;22.05;14.85;;;;;;;;;;5054637;28;20460;-66
2024/02/29 01:36:10;;;;;;;23.10;16.20;;;;;;;;;;5054102;28;20074;-66
2024/02/29 01:38:36;;;;;;;27.60;17.80;;;;;;;;;;5054112;28;20025;-66
2024/02/29 01:41:01;;;;;;;27.42;18.95;;;;;;;;;;5054603;28;20021;-66
2024/02/29 01:43:29;;;;;;;31.00;19.75;;;;;;;;;;5054257;28;20028;-66
2024/02/29 01:46:09;;;;;;;31.70;20.70;;;;;;;;;;5053947;28;20086;-67
2024/02/29 01:48:34;;;;;;;36.65;21.58;;;;;;;;;;5036127;28;20035;-67
2024/02/29 01:51:00;;;;;;;32.15;20.25;;;;;;;;;;5053882;28;20380;-67
2024/02/29 01:53:25;;;;;;;37.20;23.98;;;;;;;;;;5054101;28;20473;-67
2024/02/29 01:55:50;;;;;;;41.35;26.67;;;;;;;;;;5054369;28;20393;-66
2024/02/29 01:58:16;;;;;;;34.92;21.10;;;;;;;;;;5054000;28;20499;-66
2024/02/29 02:00:44;;;;;;;33.58;21.67;;;;;;;;;;5052404;28;20483;-66
2024/02/29 02:03:10;;;;;;;32.22;21.00;;;;;;;;;;5053665;28;20033;-65
2024/02/29 02:05:35;;;;;;;28.85;19.13;;;;;;;;;;5053598;28;20115;-65
2024/02/29 02:08:03;;;;;;;27.90;19.05;;;;;;;;;;5052294;28;20029;-65
2024/02/29 02:10:29;;;;;;;29.23;20.17;;;;;;;;;;5035709;28;20079;-65
2024/02/29 02:12:54;;;;;;;32.10;21.63;;;;;;;;;;5053518;28;20428;-65
2024/02/29 02:15:20;;;;;;;29.83;20.50;;;;;;;;;;5053823;28;20120;-66
2024/02/29 02:17:47;;;;;;;28.65;19.80;;;;;;;;;;5054045;28;20056;-66
2024/02/29 02:20:18;;;;;;;23.73;17.83;;;;;;;;;;5053501;28;20514;-66
2024/02/29 02:22:44;;;;;;;31.35;20.45;;;;;;;;;;5053716;28;20035;-66
2024/02/29 02:25:09;;;;;;;21.45;15.90;;;;;;;;;;5053413;28;20033;-66
2024/02/29 02:27:37;;;;;;;24.15;17.15;;;;;;;;;;5053558;28;20025;-65
2024/02/29 02:30:06;;;;;;;28.10;19.55;;;;;;;;;;5063814;28;20048;-65
2024/02/29 02:32:32;;;;;;;34.90;22.70;;;;;;;;;;5072510;28;20021;-65
2024/02/29 02:34:57;;;;;;;35.55;22.20;;;;;;;;;;5088759;28;20487;-61
2024/02/29 02:37:23;;;;;;;40.25;25.17;;;;;;;;;;5077427;28;20040;-61
2024/02/29 02:39:48;;;;;;;33.42;20.67;;;;;;;;;;5077438;28;20484;-60
2024/02/29 02:42:14;;;;;;;33.38;21.17;;;;;;;;;;5077410;28;20037;-61
2024/02/29 02:44:39;;;;;;;28.08;18.60;;;;;;;;;;5077393;28;20024;-60
2024/02/29 02:47:05;;;;;;;22.77;15.98;;;;;;;;;;5077243;28;20063;-60
2024/02/29 02:49:30;;;;;;;29.75;19.75;;;;;;;;;;5075866;28;20038;-61
2024/02/29 02:51:56;;;;;;;27.77;19.27;;;;;;;;;;5093010;28;20029;-62
2024/02/29 02:54:21;;;;;;;18.30;13.60;;;;;;;;;;5077300;28;20059;-61
2024/02/29 02:56:46;;;;;;;28.55;18.77;;;;;;;;;;5077052;28;20024;-61
2024/02/29 02:59:12;;;;;;;30.10;18.75;;;;;;;;;;5077038;28;20067;-61
2024/02/29 03:01:37;;;;;;;26.15;18.20;;;;;;;;;;5092725;28;20032;-61
2024/02/29 03:04:04;;;;;;;15.73;12.43;;;;;;;;;;5076936;28;20040;-61
2024/02/29 03:06:29;;;;;;;16.65;13.10;;;;;;;;;;5092537;28;20028;-61
2024/02/29 03:08:55;;;;;;;15.63;12.57;;;;;;;;;;5075405;28;20028;-61
2024/02/29 03:11:20;;;;;;;14.55;12.07;;;;;;;;;;5075502;28;20032;-61
2024/02/29 03:13:46;;;;;;;16.27;12.60;;;;;;;;;;5076717;28;20028;-61
2024/02/29 03:16:11;;;;;;;15.13;11.88;;;;;;;;;;5076689;28;20032;-60
2024/02/29 03:18:36;;;;;;;15.07;12.18;;;;;;;;;;5075362;28;20586;-61
2024/02/29 03:21:03;;;;;;;16.52;12.80;;;;;;;;;;5076678;28;20048;-61
2024/02/29 03:23:28;;;;;;;18.75;13.57;;;;;;;;;;5076601;28;20029;-61
2024/02/29 03:25:54;;;;;;;19.70;13.05;;;;;;;;;;5076519;28;20383;-61
2024/02/29 03:28:19;;;;;;;17.00;12.63;;;;;;;;;;5076422;28;20032;-61
2024/02/29 03:30:45;;;;;;;16.67;12.35;;;;;;;;;;5076306;28;20372;-63
2024/02/29 03:33:10;;;;;;;16.63;12.23;;;;;;;;;;5076355;28;20111;-61
2024/02/29 03:35:35;;;;;;;17.23;12.43;;;;;;;;;;5076359;28;20028;-62
2024/02/29 03:38:01;;;;;;;17.50;12.57;;;;;;;;;;5076407;28;20082;-62
2024/02/29 03:40:26;;;;;;;21.70;14.55;;;;;;;;;;5076423;28;20040;-62
2024/02/29 03:42:52;;;;;;;20.95;13.75;;;;;;;;;;5076285;28;20559;-62
2024/02/29 03:45:18;;;;;;;17.75;12.65;;;;;;;;;;5076282;28;20028;-62
2024/02/29 03:47:43;;;;;;;16.48;11.57;;;;;;;;;;5091411;28;20479;-60
2024/02/29 03:50:11;;;;;;;18.30;12.65;;;;;;;;;;5076317;28;20024;-60
2024/02/29 03:52:38;;;;;;;22.55;14.77;;;;;;;;;;5076285;28;20119;-61
2024/02/29 03:55:04;;;;;;;18.63;12.35;;;;;;;;;;5076092;28;20012;-61
2024/02/29 03:57:29;;;;;;;16.27;11.50;;;;;;;;;;5076198;28;20494;-60
2024/02/29 03:59:55;;;;;;;16.60;11.55;;;;;;;;;;5076138;28;20024;-60
2024/02/29 04:02:22;;;;;;;15.25;12.20;;;;;;;;;;5075878;28;20048;-60
2024/02/29 04:04:47;;;;;;;18.08;11.80;;;;;;;;;;5075803;28;20028;-59
2024/02/29 04:07:13;;;;;;;15.13;10.80;;;;;;;;;;5075903;28;20028;-60
2024/02/29 04:09:38;;;;;;;16.75;11.75;;;;;;;;;;5075808;28;20051;-59
2024/02/29 04:12:04;;;;;;;16.40;10.90;;;;;;;;;;5075676;28;20066;-61
2024/02/29 04:14:29;;;;;;;19.25;12.25;;;;;;;;;;5075696;28;20472;-60
2024/02/29 04:16:55;;;;;;;17.30;11.82;;;;;;;;;;5075634;28;20048;-61
2024/02/29 04:19:21;;;;;;;18.17;12.25;;;;;;;;;;5075686;28;20032;-61
2024/02/29 04:21:48;;;;;;;19.17;12.73;;;;;;;;;;5090914;22;20025;-61
2024/02/29 04:24:13;;;;;;;17.08;11.98;;;;;;;;;;5094234;28;20453;-67
2024/02/29 04:26:39;;;;;;;21.05;12.60;;;;;;;;;;5095670;28;20028;-67
2024/02/29 04:29:04;;;;;;;20.20;12.65;;;;;;;;;;5095878;28;20511;-67
2024/02/29 04:31:29;;;;;;;23.60;12.75;;;;;;;;;;5094258;28;20039;-67
2024/02/29 04:33:55;;;;;;;19.48;11.93;;;;;;;;;;5095465;28;20081;-66
2024/02/29 04:36:20;;;;;;;21.45;12.15;;;;;;;;;;5095576;28;20043;-67
2024/02/29 04:38:46;;;;;;;20.70;13.18;;;;;;;;;;5094434;28;20117;-69
2024/02/29 04:41:11;;;;;;;19.73;12.85;;;;;;;;;;5095603;28;20375;-70
2024/02/29 04:43:37;;;;;;;21.63;12.75;;;;;;;;;;5094079;28;20024;-70
2024/02/29 04:46:03;;;;;;;19.90;12.60;;;;;;;;;;5118505;22;20047;-63
2024/02/29 04:48:29;;;;;;;21.25;13.55;;;;;;;;;;5075513;28;20074;-71
2024/02/29 04:50:54;;;;;;;19.95;13.05;;;;;;;;;;5095400;28;20047;-70
2024/02/29 04:53:19;;;;;;;22.95;14.05;;;;;;;;;;5095663;28;20024;-70
2024/02/29 04:55:45;;;;;;;22.27;14.13;;;;;;;;;;5094160;28;20024;-70
2024/02/29 04:58:10;;;;;;;25.13;14.80;;;;;;;;;;5093849;28;20152;-69
2024/02/29 05:00:38;;;;;;;22.55;13.15;;;;;;;;;;5074163;23;20049;-62
2024/02/29 05:03:03;;;;;;;21.90;13.15;;;;;;;;;;5055036;28;20033;-61
2024/02/29 05:05:29;;;;;;;22.58;14.18;;;;;;;;;;5054671;28;20029;-62
2024/02/29 05:07:54;;;;;;;22.00;12.85;;;;;;;;;;5054833;28;20489;-62
2024/02/29 05:10:21;;;;;;;22.17;13.38;;;;;;;;;;5052852;28;20025;-61
2024/02/29 05:12:50;;;;;;;23.17;14.10;;;;;;;;;;5053701;28;20056;-62
2024/02/29 05:15:23;;;;;;;23.33;15.40;;;;;;;;;;5053652;28;20115;-61
2024/02/29 05:17:48;;;;;;;25.95;16.40;;;;;;;;;;5053503;28;20108;-61
2024/02/29 05:20:15;;;;;;;32.97;20.45;;;;;;;;;;5035646;28;20125;-62
2024/02/29 05:22:40;;;;;;;26.65;16.33;;;;;;;;;;5053503;28;20025;-61
2024/02/29 05:25:15;;;;;;;30.02;17.00;;;;;;;;;;5053757;28;20040;-61
2024/02/29 05:27:40;;;;;;;28.27;17.13;;;;;;;;;;5053579;28;20032;-62
2024/02/29 05:30:06;;;;;;;36.83;22.50;;;;;;;;;;5052983;28;20086;-62
2024/02/29 05:32:31;;;;;;;33.10;19.30;;;;;;;;;;5054469;28;20028;-61
2024/02/29 05:34:57;;;;;;;32.22;20.08;;;;;;;;;;5054117;28;20025;-61
2024/02/29 05:37:22;;;;;;;30.35;18.55;;;;;;;;;;5054892;28;20024;-61
2024/02/29 05:39:48;;;;;;;27.60;16.92;;;;;;;;;;5054456;28;20033;-62
2024/02/29 05:42:13;;;;;;;28.95;17.48;;;;;;;;;;5054580;28;20064;-61
2024/02/29 05:44:39;;;;;;;32.05;18.77;;;;;;;;;;5054456;28;20033;-62
2024/02/29 05:47:05;;;;;;;28.63;16.65;;;;;;;;;;5054303;28;20037;-65
2024/02/29 05:49:30;;;;;;;30.88;18.42;;;;;;;;;;5054335;28;20032;-62
2024/02/29 05:51:55;;;;;;;31.35;18.23;;;;;;;;;;5054235;28;20021;-61
2024/02/29 05:54:21;;;;;;;33.17;20.60;;;;;;;;;;5053885;28;20374;-61
2024/02/29 05:56:46;;;;;;;34.47;19.83;;;;;;;;;;5054258;28;20021;-62
2024/02/29 05:59:12;;;;;;;33.88;19.52;;;;;;;;;;5054290;28;20400;-61
2024/02/29 06:01:38;;;;;;;30.20;18.27;;;;;;;;;;5052317;28;20070;-61
2024/02/29 06:04:04;;;;;;;30.45;17.38;;;;;;;;;;5054282;28;20445;-62
2024/02/29 06:06:30;;;;;;;27.75;16.00;;;;;;;;;;5054155;28;20500;-62
2024/02/29 06:08:55;;;;;;;33.75;18.50;;;;;;;;;;5053536;28;20025;-62
2024/02/29 06:11:21;;;;;;;34.25;19.17;;;;;;;;;;5054246;28;20033;-61
2024/02/29 06:13:46;;;;;;;32.72;17.75;;;;;;;;;;5054139;28;20036;-62
2024/02/29 06:16:14;;;;;;;29.90;16.88;;;;;;;;;;5053875;28;20033;-62
2024/02/29 06:18:40;;;;;;;29.77;16.60;;;;;;;;;;5053979;28;20033;-61
2024/02/29 06:21:05;;;;;;;28.27;15.80;;;;;;;;;;5053988;28;20037;-63
2024/02/29 06:23:31;;;;;;;27.63;15.90;;;;;;;;;;5054030;28;20032;-63
2024/02/29 06:25:58;;;;;;;25.58;14.95;;;;;;;;;;5053377;28;20413;-63
2024/02/29 06:28:23;;;;;;;24.50;14.07;;;;;;;;;;5053611;28;20103;-63
2024/02/29 06:30:49;;;;;;;21.08;12.85;;;;;;;;;;5053153;28;20449;-63
2024/02/29 06:33:15;;;;;;;23.38;13.20;;;;;;;;;;5051071;28;20025;-63
2024/02/29 06:35:41;;;;;;;23.58;13.73;;;;;;;;;;5052566;28;20101;-63
2024/02/29 06:38:06;;;;;;;22.70;12.70;;;;;;;;;;5051787;28;20052;-63
2024/02/29 06:40:31;;;;;;;21.70;13.13;;;;;;;;;;5050047;28;20649;-63
2024/02/29 06:42:57;;;;;;;23.02;12.68;;;;;;;;;;5051471;28;20033;-63
2024/02/29 06:45:23;;;;;;;19.75;12.57;;;;;;;;;;5051305;28;20087;-63
2024/02/29 06:47:50;;;;;;;22.25;13.38;;;;;;;;;;5050128;28;20469;-63
2024/02/29 06:50:15;;;;;;;24.10;13.50;;;;;;;;;;5050072;28;20025;-63
2024/02/29 06:52:41;;;;;;;22.48;13.32;;;;;;;;;;5051356;28;20559;-63
2024/02/29 06:55:10;;;;;;;23.88;13.70;;;;;;;;;;5051430;28;20029;-63
2024/02/29 06:57:36;;;;;;;20.60;12.30;;;;;;;;;;5050454;28;20032;-63
2024/02/29 07:00:01;;;;;;;21.25;12.95;;;;;;;;;;5051279;28;20033;-63
2024/02/29 07:02:27;;;;;;;22.38;12.82;;;;;;;;;;5053099;28;20460;-63
2024/02/29 07:04:52;;;;;;;22.98;11.73;;;;;;;;;;5051878;28;20037;-70
2024/02/29 07:07:18;;;;;;;20.17;12.02;;;;;;;;;;5081951;22;20113;-63
2024/02/29 07:09:43;;;;;;;22.00;13.15;;;;;;;;;;5073018;28;20024;-63
2024/02/29 07:12:09;;;;;;;58.63;33.30;;;;;;;;;;5073560;28;20380;-63
2024/02/29 07:14:34;;;;;;;26.35;16.00;;;;;;;;;;5073046;28;20149;-63
2024/02/29 07:17:00;;;;;;;19.05;11.82;;;;;;;;;;5091871;22;20049;-71
2024/02/29 07:19:28;;;;;;;19.42;12.60;;;;;;;;;;5080726;22;20056;-63
2024/02/29 07:21:54;;;;;;;22.95;14.60;;;;;;;;;;5083510;22;20028;-63
2024/02/29 07:24:20;;;;;;;20.08;12.05;;;;;;;;;;5096058;28;20028;-63
2024/02/29 07:26:45;;;;;;;21.15;12.43;;;;;;;;;;5096891;28;20028;-63
2024/02/29 07:29:11;;;;;;;21.52;12.65;;;;;;;;;;5095467;28;20043;-63
2024/02/29 07:31:40;;;;;;;25.48;15.40;;;;;;;;;;5096744;28;20066;-63
2024/02/29 07:34:05;;;;;;;20.58;13.00;;;;;;;;;;5096995;28;20099;-63
2024/02/29 07:36:30;;;;;;;22.75;13.20;;;;;;;;;;5096710;28;20050;-63
2024/02/29 07:38:56;;;;;;;21.77;13.98;;;;;;;;;;5096631;28;20038;-63
2024/02/29 07:41:22;;;;;;;25.27;14.48;;;;;;;;;;5096638;28;20113;-63
2024/02/29 07:43:48;;;;;;;20.55;12.65;;;;;;;;;;5096807;28;20067;-63
2024/02/29 07:46:15;;;;;;;24.05;14.43;;;;;;;;;;5097073;28;20479;-63
2024/02/29 07:48:41;;;;;;;23.00;13.93;;;;;;;;;;5078211;28;20032;-63
2024/02/29 07:51:06;;;;;;;20.83;12.77;;;;;;;;;;5095143;28;20069;-63
2024/02/29 07:53:31;;;;;;;67.68;46.97;;;;;;;;;;5095067;28;20088;-63
2024/02/29 07:55:57;;;;;;;19.70;12.82;;;;;;;;;;5096283;28;20020;-63
2024/02/29 07:58:23;;;;;;;27.25;17.90;;;;;;;;;;5095065;28;20036;-63
2024/02/29 08:00:48;;;;;;;23.35;15.80;;;;;;;;;;5095048;28;20020;-63
2024/02/29 08:03:14;;;;;;;19.90;12.70;;;;;;;;;;5096418;28;20028;-63
2024/02/29 08:05:40;;;;;;;25.38;15.40;;;;;;;;;;5096104;28;20028;-63
2024/02/29 08:08:07;;;;;;;27.55;15.10;;;;;;;;;;5096284;28;20019;-63
2024/02/29 08:10:32;;;;;;;27.52;16.27;;;;;;;;;;5096304;28;20027;-63
2024/02/29 08:12:58;;;;;;;27.90;18.05;;;;;;;;;;5095059;28;20020;-63
2024/02/29 08:15:24;;;;;;;21.60;13.70;;;;;;;;;;5096454;28;20201;-63
2024/02/29 08:17:49;;;;;;;24.15;16.40;;;;;;;;;;5097583;28;20020;-63
2024/02/29 08:20:15;;;;;;;35.53;29.27;;;;;;;;;;5094753;28;20529;-63
2024/02/29 08:22:42;;;;;;;24.00;16.40;;;;;;;;;;5095846;28;20123;-63
2024/02/29 08:25:08;;;;;;;25.52;18.88;;;;;;;;;;5096292;28;20045;-63
2024/02/29 08:27:35;;;;;;;24.25;17.05;;;;;;;;;;5094543;28;20035;-63
2024/02/29 08:30:00;;;;;;;25.70;18.73;;;;;;;;;;5094285;28;20407;-63
2024/02/29 08:32:26;;;;;;;26.10;17.05;;;;;;;;;;5095780;28;20028;-63
2024/02/29 08:34:53;;;;;;;23.15;15.43;;;;;;;;;;5095827;28;20444;-63
2024/02/29 08:37:20;;;;;;;20.23;13.35;;;;;;;;;;5095749;28;20021;-63
2024/02/29 08:39:46;;;;;;;19.20;12.73;;;;;;;;;;5094890;28;20369;-63
2024/02/29 08:42:11;;;;;;;19.65;12.80;;;;;;;;;;5095398;28;20110;-63
2024/02/29 08:44:40;;;;;;;15.57;10.85;;;;;;;;;;5095631;28;20426;-63
2024/02/29 08:47:07;;;;;;;16.25;10.20;;;;;;;;;;5095275;28;20024;-63
2024/02/29 08:49:33;;;;;;;21.70;13.82;;;;;;;;;;5095752;28;20009;-63
2024/02/29 08:51:58;;;;;;;17.98;12.75;;;;;;;;;;5095222;28;20039;-63
2024/02/29 08:54:24;;;;;;;22.80;15.07;;;;;;;;;;5093932;28;20034;-63
2024/02/29 08:56:49;;;;;;;18.77;12.57;;;;;;;;;;5094543;28;20038;-63
2024/02/29 08:59:14;;;;;;;20.35;13.68;;;;;;;;;;5094728;28;20391;-63
2024/02/29 09:01:40;;;;;;;24.48;15.32;;;;;;;;;;5093787;28;20034;-63
2024/02/29 09:04:05;;;;;;;18.13;11.65;;;;;;;;;;5095326;28;20032;-70
2024/02/29 09:06:31;;;;;;;24.67;15.38;;;;;;;;;;5093736;28;20032;-72
2024/02/29 09:08:56;;;;;;;24.15;16.33;;;;;;;;;;5093559;28;20024;-71
2024/02/29 09:11:22;;;;;;;22.35;14.30;;;;;;;;;;5094247;28;20032;-71
2024/02/29 09:13:47;;;;;;;20.98;14.73;;;;;;;;;;5093645;28;20035;-71
2024/02/29 09:16:13;;;;;;;22.05;13.65;;;;;;;;;;5093495;28;20028;-71
2024/02/29 09:18:39;;;;;;;23.05;14.32;;;;;;;;;;5095011;28;20043;-63
2024/02/29 09:21:06;;;;;;;22.98;15.45;;;;;;;;;;5093389;28;20028;-63
2024/02/29 09:23:31;;;;;;;25.88;15.52;;;;;;;;;;5093227;28;20445;-63
2024/02/29 09:26:16;;;;;;;23.13;15.30;;;;;;;;;;5111065;22;20047;-63
2024/02/29 09:28:42;;;;;;;23.02;15.43;;;;;;;;;;5051452;28;20449;-71
2024/02/29 09:31:07;;;;;;;23.98;14.98;;;;;;;;;;5053284;28;20025;-71
2024/02/29 09:33:33;;;;;;;25.25;15.52;;;;;;;;;;5086522;28;20461;-71
2024/02/29 09:36:06;;;;;;;22.58;14.20;;;;;;;;;;5107389;22;20058;-70
2024/02/29 09:38:32;;;;;;;24.30;16.30;;;;;;;;;;5121040;22;20056;-72
2024/02/29 09:40:57;;;;;;;23.05;15.25;;;;;;;;;;5073992;28;20025;-71
2024/02/29 09:43:23;;;;;;;20.55;14.98;;;;;;;;;;5056114;28;20042;-71
2024/02/29 09:45:50;;;;;;;25.83;17.10;;;;;;;;;;5073503;28;20357;-71
2024/02/29 09:48:16;;;;;;;23.20;15.75;;;;;;;;;;5074089;28;20036;-71
2024/02/29 09:50:41;;;;;;;23.75;16.40;;;;;;;;;;5073885;28;20024;-71
2024/02/29 09:53:09;;;;;;;22.30;14.35;;;;;;;;;;5055963;28;20028;-71
2024/02/29 09:55:35;;;;;;;23.13;15.45;;;;;;;;;;5056301;28;20081;-71
2024/02/29 09:58:01;;;;;;;23.40;15.00;;;;;;;;;;5074351;28;20108;-71
2024/02/29 10:00:27;;;;;;;21.95;15.25;;;;;;;;;;5074035;28;20025;-71
2024/02/29 10:02:52;;;;;;;14.50;10.60;;;;;;;;;;5074022;28;20514;-71
2024/02/29 10:05:19;;;;;;;23.13;15.80;;;;;;;;;;5073692;28;20058;-71
2024/02/29 10:07:48;;;;;;;20.23;14.50;;;;;;;;;;5056025;28;20029;-71
2024/02/29 10:10:15;;;;;;;26.52;16.65;;;;;;;;;;5073968;28;20037;-71
2024/02/29 10:12:41;;;;;;;21.90;14.65;;;;;;;;;;5073883;28;20488;-71
2024/02/29 10:15:10;;;;;;;24.42;16.60;;;;;;;;;;5055736;28;20033;-71
2024/02/29 10:17:39;;;;;;;23.83;16.70;;;;;;;;;;5055855;28;20021;-71
2024/02/29 10:20:06;;;;;;;24.48;15.02;;;;;;;;;;5055787;28;20037;-71
2024/02/29 10:22:32;;;;;;;26.92;17.15;;;;;;;;;;5073516;28;20024;-71
2024/02/29 10:24:58;;;;;;;23.85;15.13;;;;;;;;;;5073728;28;20035;-71
2024/02/29 10:27:23;;;;;;;23.45;15.93;;;;;;;;;;5073708;28;20025;-71
2024/02/29 10:29:49;;;;;;;26.27;17.88;;;;;;;;;;5086681;22;20060;-63
2024/02/29 10:32:15;;;;;;;26.50;18.15;;;;;;;;;;5072136;28;20029;-63
2024/02/29 10:34:40;;;;;;;27.30;17.90;;;;;;;;;;5072247;28;20028;-63
2024/02/29 10:37:06;;;;;;;28.00;17.38;;;;;;;;;;5072043;28;20127;-63
2024/02/29 10:39:32;;;;;;;29.52;19.58;;;;;;;;;;5073638;28;20029;-63
2024/02/29 10:41:59;;;;;;;30.52;18.88;;;;;;;;;;5072903;28;20102;-63
2024/02/29 10:44:29;;;;;;;35.22;21.15;;;;;;;;;;5072165;28;20037;-63
2024/02/29 10:46:55;;;;;;;27.55;16.83;;;;;;;;;;5055314;28;20115;-63
2024/02/29 10:49:32;;;;;;;30.80;19.48;;;;;;;;;;5073526;28;20025;-63
2024/02/29 10:52:02;;;;;;;31.02;19.58;;;;;;;;;;5073319;28;20029;-63
2024/02/29 10:54:34;;;;;;;29.55;17.83;;;;;;;;;;5071982;28;20060;-63
2024/02/29 10:57:01;;;;;;;24.58;16.02;;;;;;;;;;5075177;28;20166;-63
2024/02/29 10:59:28;;;;;;;27.50;17.27;;;;;;;;;;5077432;28;20082;-63
2024/02/29 11:01:57;;;;;;;28.33;18.23;;;;;;;;;;5059237;28;20050;-63
2024/02/29 11:04:30;;;;;;;30.52;19.02;;;;;;;;;;5077291;28;20036;-63
2024/02/29 11:06:56;;;;;;;26.08;18.02;;;;;;;;;;5077282;28;20025;-63
2024/02/29 11:09:24;;;;;;;31.95;19.33;;;;;;;;;;5076846;28;20032;-71
2024/02/29 11:12:02;;;;;;;27.08;16.98;;;;;;;;;;5077194;28;20036;-71
2024/02/29 11:14:31;;;;;;;19.38;13.68;;;;;;;;;;5076851;28;20036;-71
2024/02/29 11:16:56;;;;;;;28.75;18.52;;;;;;;;;;5077108;28;20448;-71
2024/02/29 11:19:22;;;;;;;33.13;19.67;;;;;;;;;;5076726;28;20076;-71
2024/02/29 11:21:47;;;;;;;31.63;18.83;;;;;;;;;;5077273;28;20024;-71
2024/02/29 11:24:20;;;;;;;20.65;13.55;;;;;;;;;;5075461;28;20062;-71
2024/02/29 11:26:45;;;;;;;27.02;16.88;;;;;;;;;;5075340;28;20028;-71
2024/02/29 11:29:14;;;;;;;24.75;14.98;;;;;;;;;;5075604;28;20037;-71
2024/02/29 11:31:44;;;;;;;27.88;16.20;;;;;;;;;;5058426;28;20087;-71
2024/02/29 11:34:09;;;;;;;28.63;17.50;;;;;;;;;;5076840;28;20032;-71
2024/02/29 11:36:36;;;;;;;22.88;14.68;;;;;;;;;;5076452;28;20047;-71
2024/02/29 11:39:02;;;;;;;31.02;18.95;;;;;;;;;;5076663;28;20104;-71
2024/02/29 11:41:27;;;;;;;32.17;18.70;;;;;;;;;;5075082;28;20140;-71
2024/02/29 11:46:17;;;;;;;34.10;21.40;;;;;;;;;;5098364;22;20083;-70
2024/02/29 11:48:43;;;;;;;36.13;21.17;;;;;;;;;;5094284;28;20036;-71
2024/02/29 11:51:08;;;;;;;33.80;19.88;;;;;;;;;;5096701;28;20024;-71
2024/02/29 11:53:34;;;;;;;33.42;20.05;;;;;;;;;;5078316;28;20028;-71
2024/02/29 11:56:00;;;;;;;23.58;15.63;;;;;;;;;;5076797;22;20060;-63
2024/02/29 11:58:26;;;;;;;27.17;15.50;;;;;;;;;;5112705;22;20048;-71
2024/02/29 12:00:53;;;;;;;38.17;21.48;;;;;;;;;;5096492;28;20077;-71
2024/02/29 12:03:19;;;;;;;38.17;21.15;;;;;;;;;;5108346;22;20032;-70
2024/02/29 12:05:44;;;;;;;42.00;23.45;;;;;;;;;;5095170;28;20085;-71
2024/02/29 12:08:10;;;;;;;37.35;23.27;;;;;;;;;;5096099;28;20036;-71
2024/02/29 12:10:36;;;;;;;35.65;21.17;;;;;;;;;;5077869;28;20020;-71
2024/02/29 12:13:02;;;;;;;38.03;22.85;;;;;;;;;;5095986;28;20055;-71
2024/02/29 12:15:27;;;;;;;29.35;16.75;;;;;;;;;;5096206;28;20059;-71
2024/02/29 12:17:53;;;;;;;25.08;15.07;;;;;;;;;;5094624;28;20035;-71
2024/02/29 12:20:18;;;;;;;37.75;23.67;;;;;;;;;;5095834;28;20032;-71
2024/02/29 12:22:46;;;;;;;46.17;29.42;;;;;;;;;;5096358;28;20035;-71
2024/02/29 12:25:12;;;;;;;38.17;22.48;;;;;;;;;;5096299;28;20055;-71
2024/02/29 12:27:38;;;;;;;60.17;39.78;;;;;;;;;;5060877;28;20036;-71
2024/02/29 12:30:04;;;;;;;72.20;49.45;;;;;;;;;;5077434;28;20479;-71
2024/02/29 12:32:30;;;;;;;36.70;22.40;;;;;;;;;;5095869;28;20047;-71
2024/02/29 12:34:56;;;;;;;40.13;25.67;;;;;;;;;;5060796;28;20468;-71
2024/02/29 12:37:22;;;;;;;43.88;26.35;;;;;;;;;;5095493;28;20047;-71
2024/02/29 12:39:54;;;;;;;39.20;23.30;;;;;;;;;;5096076;28;20040;-71
2024/02/29 12:42:20;;;;;;;36.22;20.95;;;;;;;;;;5095729;28;20490;-71
2024/02/29 12:44:46;;;;;;;39.40;21.50;;;;;;;;;;5095365;28;20093;-71
2024/02/29 12:47:11;;;;;;;40.47;23.00;;;;;;;;;;5077590;28;20475;-70
2024/02/29 12:49:36;;;;;;;32.05;19.20;;;;;;;;;;5095474;28;20481;-71
2024/02/29 12:52:02;;;;;;;34.88;22.52;;;;;;;;;;5095520;28;20024;-71
2024/02/29 12:54:28;;;;;;;32.83;23.17;;;;;;;;;;5085427;22;20056;-63
2024/02/29 12:56:53;;;;;;;29.77;19.77;;;;;;;;;;5074934;28;20027;-63
2024/02/29 12:59:19;;;;;;;43.05;25.17;;;;;;;;;;5074897;28;20395;-63
2024/02/29 13:01:52;;;;;;;37.42;26.08;;;;;;;;;;5074826;28;20111;-63
2024/02/29 13:04:18;;;;;;;39.42;25.08;;;;;;;;;;5073903;28;20072;-63
2024/02/29 13:06:44;;;;;;;41.40;27.05;;;;;;;;;;5075217;28;20060;-63
2024/02/29 13:09:09;;;;;;;27.67;15.82;;;;;;;;;;5074603;28;20039;-63
2024/02/29 13:11:34;;;;;;;33.72;19.45;;;;;;;;;;5073312;28;20024;-63
2024/02/29 13:14:00;;;;;;;35.45;21.38;;;;;;;;;;5073968;28;20024;-63
2024/02/29 13:16:25;;;;;;;32.70;20.40;;;;;;;;;;5056632;28;20027;-70
2024/02/29 13:18:51;;;;;;;33.40;19.60;;;;;;;;;;5075012;28;20036;-72
2024/02/29 13:21:16;;;;;;;28.45;17.80;;;;;;;;;;5075333;28;20040;-71
2024/02/29 13:23:43;;;;;;;32.53;20.10;;;;;;;;;;5076403;28;20036;-71
2024/02/29 13:26:08;;;;;;;38.10;23.15;;;;;;;;;;5074748;28;20037;-70
2024/02/29 13:28:34;;;;;;;31.58;17.85;;;;;;;;;;5074483;28;20108;-71
2024/02/29 13:30:59;;;;;;;29.80;18.05;;;;;;;;;;5072992;28;20091;-71
2024/02/29 13:33:25;;;;;;;27.80;16.75;;;;;;;;;;5074479;28;20040;-71
2024/02/29 13:35:50;;;;;;;33.17;19.52;;;;;;;;;;5074079;28;20070;-70
2024/02/29 13:38:16;;;;;;;34.58;19.95;;;;;;;;;;5074138;28;20025;-63
2024/02/29 13:40:41;;;;;;;33.55;19.65;;;;;;;;;;5113727;23;20059;-71
2024/02/29 13:43:07;;;;;;;33.28;19.20;;;;;;;;;;5114951;28;20019;-71
2024/02/29 13:45:36;;;;;;;30.05;17.15;;;;;;;;;;5114616;28;20453;-71
2024/02/29 13:48:01;;;;;;;20.75;11.88;;;;;;;;;;5114793;28;20019;-71
2024/02/29 13:50:26;;;;;;;36.35;22.42;;;;;;;;;;5114823;28;20026;-71
2024/02/29 13:52:52;;;;;;;35.30;22.13;;;;;;;;;;5115010;28;20023;-71
2024/02/29 13:55:18;;;;;;;34.60;21.23;;;;;;;;;;5114499;28;20106;-70
2024/02/29 13:57:43;;;;;;;37.85;24.98;;;;;;;;;;5114685;28;20110;-71
2024/02/29 14:00:09;;;;;;;36.38;23.30;;;;;;;;;;5113259;28;20036;-70
2024/02/29 14:02:40;;;;;;;37.60;22.77;;;;;;;;;;5114617;28;20092;-71
2024/02/29 14:05:06;;;;;;;36.63;23.02;;;;;;;;;;5114250;28;20031;-63
2024/02/29 14:07:32;;;;;;;33.35;19.90;;;;;;;;;;5114510;28;20027;-71
2024/02/29 14:09:58;;;;;;;39.45;25.25;;;;;;;;;;5114167;28;20031;-71
2024/02/29 14:12:25;;;;;;;36.58;21.50;;;;;;;;;;5114476;28;20012;-71